• Join FlightAware (Why Join?)
  • Login
  • US Flag 
09:22PM EDT


 

Airport Tracker/Info


-or-


 

Live Flight TrackerFlight Track Log ✈ AAL1459 ✈ 12-Apr-2013 ✈ KBOS - KORD

Flight Track Log - Related Links

Times and Time Zones

All times are in EDT time to prevent confusion due to time zone crossing. See the AAL1459 flight status page for this flight to view local times or setup timezone preferences in your user account.

Time Position Orientation Groundspeed Altitude Reporting Facility
EDT Latitude Longitude Course Direction KTS MPH feet Rate Location/Type
02:18PM 42.5296 -70.7963 324° Northwest  Level FlightAware Approximate
02:19PM 42.6016 -70.8777 308° West  Level FlightAware Approximate
02:20PM 42.6557 -70.9868 300° West  Level FlightAware Approximate
02:20PM 42.5380 -70.8450 300° West 305 351 10,800  Level FlightAware
02:21PM 42.7035 -71.1017 300° West  Level FlightAware Approximate
02:21PM 42.6070 -70.9670 308° West 329 379 14,500  Level FlightAware
02:22PM 42.6740 -71.0850 308° West 347 399 17,800 2,520 Climbing FlightAware
02:24PM 42.7400 -71.2240 303° West 347 399 20,700 2,220 Climbing FlightAware
02:26PM 42.7710 -71.4870 279° West 351 404 25,100 2,040 Climbing FlightAware
02:26PM 42.7810 -71.5890 278° West 362 417 26,400 1,740 Climbing FlightAware
02:27PM 42.7910 -71.6810 278° West 369 425 27,600 1,500 Climbing FlightAware
02:28PM 42.8010 -71.7820 278° West 380 437 28,600 1,260 Climbing FlightAware
02:29PM 42.8110 -71.8790 278° West 389 448 29,400 1,260 Climbing FlightAware
02:29PM 42.8200 -71.9770 277° West 397 457 30,300 1,320 Climbing FlightAware
02:30PM 42.8320 -72.0910 278° West 404 465 31,300 1,380 Climbing FlightAware
02:31PM 42.8410 -72.1910 277° West 403 464 32,300 1,620 Climbing FlightAware
02:31PM 42.8520 -72.3010 278° West 397 457 33,600 1,740 Climbing FlightAware
02:32PM 42.8620 -72.4000 278° West 389 448 34,800 1,740 Climbing FlightAware
02:33PM 42.8720 -72.5090 277° West 376 433 36,100 1,440 Climbing FlightAware
02:33PM 42.8810 -72.6020 278° West 373 429 36,900 960 Climbing FlightAware
02:34PM 42.8890 -72.6960 277° West 373 429 37,400 600 Climbing FlightAware
02:35PM 42.8990 -72.8000 278° West 380 437 37,800 420 Climbing FlightAware
02:36PM 42.9080 -72.8970 277° West 385 443 38,000 120 Climbing FlightAware
02:36PM 42.9160 -72.9900 277° West 392 451 38,000  Level FlightAware
02:37PM 42.9210 -73.0390 278° West 393 452 38,000  Level FlightAware
02:38PM 42.9310 -73.1560 277° West 392 451 38,000  Level FlightAware
02:38PM 42.9450 -73.3090 277° West 391 450 38,000  Level FlightAware
02:39PM 42.9530 -73.4070 276° West 390 449 38,000  Level FlightAware
02:40PM 42.9620 -73.5060 277° West 390 449 38,000  Level FlightAware
02:40PM 42.9710 -73.6160 276° West 389 448 38,000  Level FlightAware
02:41PM 42.9790 -73.7120 277° West 389 448 38,000  Level FlightAware
02:42PM 42.9890 -73.8260 277° West 390 449 38,000  Level FlightAware
02:43PM 42.9960 -73.9170 276° West 391 450 38,000  Level FlightAware
02:43PM 43.0050 -74.0220 277° West 392 451 38,000  Level FlightAware
02:44PM 43.0130 -74.1260 276° West 394 453 38,000  Level FlightAware
02:45PM 43.0210 -74.2290 276° West 395 455 38,000  Level FlightAware
02:45PM 43.0290 -74.3340 276° West 396 456 38,000  Level FlightAware
02:46PM 43.0380 -74.4360 277° West 397 457 38,000  Level FlightAware
02:47PM 43.0430 -74.5220 275° West 397 457 38,000  Level FlightAware
02:47PM 43.0540 -74.6460 277° West 398 458 38,000  Level FlightAware
02:48PM 43.0610 -74.7510 275° West 396 456 38,000  Level FlightAware
02:49PM 43.0680 -74.8540 275° West 397 457 38,000  Level FlightAware
02:50PM 43.0740 -74.9390 276° West 397 457 38,000  Level FlightAware
02:50PM 43.0840 -75.0530 277° West 38,000  Level FlightAware
02:51PM 43.0930 -75.1850 275° West 379 436 38,000  Level FlightAware
02:52PM 43.0980 -75.2660 275° West 379 436 38,000  Level FlightAware
02:52PM 43.1030 -75.3480 275° West 379 436 38,000  Level FlightAware
02:53PM 43.1100 -75.4490 275° West 379 436 38,000  Level FlightAware
02:54PM 43.1240 -75.6330 276° West 381 438 38,000  Level FlightAware
02:55PM 43.1310 -75.7490 275° West 382 440 38,000  Level FlightAware
02:56PM 43.1370 -75.8310 276° West 382 440 38,000  Level FlightAware
02:56PM 43.1420 -75.9130 275° West 382 440 38,000  Level FlightAware
02:57PM 43.1480 -76.0150 275° West 382 440 38,000  Level FlightAware
02:58PM 43.1540 -76.0980 276° West 382 440 38,000  Level FlightAware
02:59PM 43.1590 -76.1800 275° West 382 440 38,000  Level FlightAware
02:59PM 43.1640 -76.2620 275° West 382 440 38,000  Level FlightAware
03:00PM 43.1690 -76.3440 275° West 382 440 38,000  Level FlightAware
03:01PM 43.1760 -76.4460 275° West 382 440 38,000  Level FlightAware
03:01PM 43.1810 -76.5280 275° West 382 440 38,000  Level FlightAware
03:02PM 43.1860 -76.6110 275° West 382 440 38,000  Level FlightAware
03:03PM 43.1920 -76.6930 276° West 382 440 38,000  Level FlightAware
03:03PM 43.1970 -76.7750 275° West 382 440 38,000  Level FlightAware
03:04PM 43.2030 -76.8770 275° West 382 440 38,000  Level FlightAware
03:06PM 43.1550 -77.4000 263° West 381 438 38,000  Level FlightAware
03:07PM 43.1540 -77.4960 269° West 379 436 38,000  Level FlightAware
03:09PM 43.1520 -77.7300 269° West 378 435 38,000  Level FlightAware
03:10PM 43.1500 -77.8820 269° West 383 441 38,000  Level FlightAware
03:11PM 43.1460 -78.1440 269° West 388 447 38,000  Level FlightAware
03:12PM 43.1440 -78.2540 269° West 389 448 38,000  Level FlightAware
03:13PM 43.1420 -78.3480 268° West 389 448 38,000  Level FlightAware
03:14PM 43.1390 -78.4620 268° West 390 449 38,000  Level FlightAware
03:14PM 43.1370 -78.5550 268° West 392 451 38,000  Level FlightAware
03:15PM 43.1340 -78.6600 268° West 395 455 38,000  Level FlightAware
03:16PM 43.1330 -78.7720 269° West 399 459 38,000  Level FlightAware
03:16PM 43.1320 -78.8720 269° West 402 463 38,000  Level FlightAware
03:17PM 43.1310 -78.9780 269° West 405 466 38,000  Level FlightAware
03:18PM 43.1290 -79.0910 269° West 406 467 38,000  Level FlightAware
03:18PM 43.1270 -79.1870 268° West 405 466 38,000  Level FlightAware
03:19PM 43.1260 -79.3090 269° West 407 468 38,000  Level FlightAware
03:20PM 43.1240 -79.4090 268° West 409 471 38,000  Level FlightAware
03:21PM 43.1220 -79.5290 269° West 409 471 38,000  Level FlightAware
03:21PM 43.1200 -79.6300 268° West 406 467 38,000  Level FlightAware
03:22PM 43.1180 -79.7460 269° West 402 463 38,000  Level FlightAware
03:23PM 43.1150 -79.8470 268° West 402 463 38,000  Level FlightAware
03:23PM 43.1130 -79.9450 268° West 403 464 38,000  Level FlightAware
03:24PM 43.1110 -80.0510 269° West 404 465 38,000  Level FlightAware
03:25PM 43.1080 -80.1650 268° West 406 467 38,000  Level FlightAware
03:26PM 43.1060 -80.2790 269° West 408 470 38,000  Level FlightAware
03:26PM 43.1030 -80.3780 268° West 410 472 38,000  Level FlightAware
03:27PM 43.1000 -80.4850 268° West 411 473 38,000  Level FlightAware
03:28PM 43.0970 -80.6090 268° West 412 474 38,000  Level FlightAware
03:28PM 43.0940 -80.7090 268° West 412 474 38,000  Level FlightAware
03:29PM 43.0900 -80.8350 268° West 411 473 38,000  Level FlightAware
03:30PM 43.0880 -80.9210 268° West 411 473 38,000  Level FlightAware
03:31PM 43.0840 -81.0500 268° West 411 473 38,000  Level FlightAware
03:31PM 43.0800 -81.1730 267° West 410 472 38,000  Level FlightAware
03:32PM 43.0770 -81.2680 268° West 410 472 38,000  Level FlightAware
03:33PM 43.0720 -81.4140 267° West 410 472 38,000  Level FlightAware
03:34PM 43.0670 -81.5360 267° West 411 473 38,000  Level FlightAware
03:34PM 43.0630 -81.6590 267° West 412 474 38,000  Level FlightAware
03:35PM 43.0590 -81.7580 267° West 413 475 38,000  Level FlightAware
03:36PM 43.0550 -81.8790 267° West 415 478 38,000  Level FlightAware
03:36PM 43.0500 -81.9840 266° West 416 479 38,000  Level FlightAware
03:37PM 43.0460 -82.1040 267° West 418 481 38,000  Level FlightAware
03:38PM 43.0430 -82.1700 266° West 419 482 38,000  Level FlightAware
03:38PM 43.0390 -82.2720 267° West 420 483 38,000  Level FlightAware
03:39PM 43.0330 -82.4080 267° West 422 486 38,000  Level FlightAware
03:40PM 43.0280 -82.5170 266° West 421 484 38,000  Level FlightAware
03:41PM 43.0230 -82.6230 266° West 413 475 38,000  Level FlightAware
03:41PM 43.0190 -82.7260 267° West 412 474 38,000  Level FlightAware
03:42PM 43.0120 -82.8610 266° West 411 473 38,000  Level FlightAware
03:43PM 43.0080 -82.9600 267° West 409 471 38,000  Level FlightAware
03:43PM 43.0020 -83.0630 265° West 409 471 38,000  Level FlightAware
03:44PM 42.9980 -83.1580 267° West 408 470 38,000  Level FlightAware
03:45PM 42.9920 -83.2820 266° West 412 474 38,000  Level FlightAware
03:46PM 42.9860 -83.3820 265° West 412 474 38,000  Level FlightAware
03:46PM 42.9800 -83.5020 266° West 412 474 38,000  Level FlightAware
03:47PM 42.9740 -83.6030 265° West 412 474 38,000  Level FlightAware
03:48PM 42.9680 -83.7130 266° West 411 473 38,000  Level FlightAware
03:48PM 42.9580 -83.8410 264° West 408 470 38,000  Level FlightAware
03:49PM 42.9480 -83.9450 263° West 407 468 38,000  Level FlightAware
03:50PM 42.9380 -84.0420 262° West 408 470 38,000 -120 Level FlightAware
03:50PM 42.9270 -84.1630 263° West 409 471 37,900 -540 Descending FlightAware
03:51PM 42.9150 -84.2780 262° West 404 465 37,200 -1,380 Descending FlightAware
03:52PM 42.9050 -84.3760 262° West 401 461 36,000 -2,280 Descending FlightAware
03:53PM 42.8960 -84.4720 263° West 404 465 34,200 -2,760 Descending FlightAware
03:53PM 42.8830 -84.5940 262° West 405 466 32,100 -1,560 Descending FlightAware
03:54PM 42.8730 -84.6930 262° West 404 465 32,000 -120 Descending FlightAware
03:55PM 42.8620 -84.7930 261° West 403 464 32,000  Level FlightAware
03:55PM 42.8510 -84.9040 262° West 402 463 32,000  Level FlightAware
03:56PM 42.8400 -85.0050 262° West 402 463 32,000  Level FlightAware
03:57PM 42.8280 -85.1200 262° West 402 463 32,000  Level FlightAware
03:57PM 42.8180 -85.2180 262° West 402 463 32,000  Level FlightAware
03:58PM 42.8050 -85.3290 261° West 402 463 32,000 -480 Level FlightAware
03:59PM 42.7940 -85.4280 261° West 401 461 31,400 -1,380 Descending FlightAware
04:00PM 42.7820 -85.5230 260° West 403 464 30,200 -1,980 Descending FlightAware
04:00PM 42.7610 -85.6420 257° West 414 476 28,600 -2,220 Descending FlightAware
04:01PM 42.7420 -85.7440 256° West 410 472 27,100 -2,220 Descending FlightAware
04:02PM 42.7240 -85.8430 256° West 402 463 25,700 -2,220 Descending FlightAware
04:02PM 42.7050 -85.9490 256° West 391 450 24,000 -2,280 Descending FlightAware
04:03PM 42.6860 -86.0570 257° West 378 435 22,300 -2,280 Descending FlightAware
04:04PM 42.6690 -86.1480 256° West 369 425 20,800 -1,680 Descending FlightAware
04:04PM 42.6520 -86.2370 255° West 361 415 20,100 -600 Descending FlightAware
04:05PM 42.6350 -86.3310 256° West 348 400 20,000 -120 Descending FlightAware
04:06PM 42.6190 -86.4150 256° West 344 396 20,000 -360 Level FlightAware
04:07PM 42.6010 -86.5100 256° West 340 391 19,500 -1,380 Descending FlightAware
04:07PM 42.5860 -86.5930 256° West 335 386 18,100 -2,040 Descending FlightAware
04:08PM 42.5700 -86.6730 255° West 330 380 16,800 -1,980 Descending FlightAware
04:09PM 42.5510 -86.7590 253° West 331 381 15,300 -1,920 Descending FlightAware
04:09PM 42.5320 -86.8330 251° West 332 382 14,100 -1,980 Descending FlightAware
04:10PM 42.5100 -86.9110 249° West 326 375 12,700 -1,980 Descending FlightAware
04:11PM 42.4870 -86.9940 249° West 316 364 11,300 -1,560 Descending FlightAware
04:11PM 42.4680 -87.0650 250° West 294 338 10,500 -1,080 Descending FlightAware
04:12PM 42.4460 -87.1450 250° West 270 311 9,800 -900 Descending FlightAware
04:13PM 42.4360 -87.1810 249° West 258 297 9,500 -660 Descending FlightAware
04:13PM 42.4240 -87.2270 251° West 254 292 9,200 -360 Descending FlightAware
04:14PM 42.4140 -87.2620 249° West 256 295 9,200 -600 Level FlightAware
04:14PM 42.4010 -87.3100 250° West 258 297 8,700 -1,080 Descending FlightAware
04:14PM 42.3960 -87.3280 249° West 258 297 8,400 -1,380 Descending FlightAware
04:15PM 42.3830 -87.3760 250° West 254 292 7,700 -1,440 Descending FlightAware
04:15PM 42.3660 -87.4100 236° Southwest 260 299 7,100 -1,200 Descending FlightAware
04:15PM 42.3530 -87.4180 204° Southwest 267 307 6,900 -1,080 Descending FlightAware
04:16PM 42.3120 -87.4140 176° South 272 313 6,300 -780 Descending FlightAware
04:16PM 42.2830 -87.4080 171° South 269 310 6,200 -120 Descending FlightAware
04:17PM 42.2520 -87.4010 171° South 268 308 6,200  Level FlightAware
04:17PM 42.2200 -87.3930 170° South 267 307 6,200 -480 Level FlightAware
04:18PM 42.1820 -87.3850 171° South 265 305 5,800 -1,140 Descending FlightAware
04:18PM 42.1470 -87.3770 170° South 264 304 5,100 -1,320 Descending FlightAware
04:19PM 42.1170 -87.3700 170° South 263 303 4,600 -720 Descending FlightAware
04:19PM 42.0610 -87.3750 184° South 220 253 4,200 -360 Descending FlightAware
04:20PM 42.0420 -87.3790 189° South 206 237 4,200  Level FlightAware
04:20PM 42.0250 -87.3870 199° South 198 228 4,200  Level FlightAware
04:20PM 42.0170 -87.4000 230° Southwest 195 224 4,200  Level FlightAware
04:21PM 42.0130 -87.4210 256° West 193 222 4,200  Level FlightAware
04:21PM 42.0080 -87.4490 256° West 200 230 4,200 60 Level FlightAware
04:22PM 42.0020 -87.4860 258° West 202 232 4,300  Climbing FlightAware
04:22PM 42.0020 -87.5330 270° West 178 205 4,200 -120 Descending FlightAware
04:23PM 42.0020 -87.5640 270° West 160 184 4,200  Level FlightAware
04:23PM 42.0020 -87.5930 270° West 157 181 4,200  Level FlightAware
04:24PM 42.0020 -87.6330 270° West 153 176 4,200  Level FlightAware
04:24PM 42.0020 -87.6460 270° West 154 177 4,200  Level FlightAware
04:25PM 42.0030 -87.6710 273° West 155 178 4,200 -240 Level FlightAware
04:25PM 42.0030 -87.6940 270° West 157 181 4,000 -720 Descending FlightAware
04:25PM 42.0030 -87.7180 270° West 158 182 3,600 -900 Descending FlightAware
04:26PM 42.0030 -87.7530 270° West 160 184 3,100 -840 Descending FlightAware
04:26PM 42.0030 -87.7810 270° West 152 175 2,700 -840 Descending FlightAware
04:27PM 42.0030 -87.7960 270° West 147 169 2,500 -900 Descending FlightAware
04:27PM 42.0030 -87.8300 270° West 136 157 1,900 -840 Descending FlightAware
04:28PM 42.0030 -87.8470 270° West 132 152 1,700 -780 Descending FlightAware
04:28PM 42.0030 -87.8840 270° West 134 154 1,100 -840 Descending FlightAware